Time;durP1;ratioP1;P1;durP2;ratioP2;P2;SDS_P1;SDS_P2;PMS_P1;PMS_P2;Temp;Humidity;BMP_temperature;BMP_pressure;BME280_temperature;BME280_humidity;BME280_pressure;Samples;Min_cycle;Max_cycle;Signal;HPM_P1;HPM_P2
2021/01/18 00:00:58;;;;;;;62.00;30.35;;;-0.20;99.90;;;;;;5092467;28;20044;-67
2021/01/18 00:03:25;;;;;;;66.35;30.50;;;-0.20;99.90;;;;;;5092658;28;20561;-66
2021/01/18 00:05:52;;;;;;;64.75;29.45;;;-0.20;99.90;;;;;;5092561;28;20076;-66
2021/01/18 00:08:19;;;;;;;71.53;31.35;;;-0.20;99.90;;;;;;5092094;28;20142;-66
2021/01/18 00:10:45;;;;;;;66.63;32.33;;;-0.20;99.90;;;;;;5073360;28;20055;-66
2021/01/18 00:13:12;;;;;;;68.68;31.17;;;-0.20;99.90;;;;;;5092298;28;20063;-65
2021/01/18 00:15:38;;;;;;;68.55;30.92;;;-0.20;99.90;;;;;;5092501;28;20052;-65
2021/01/18 00:18:05;;;;;;;65.90;29.38;;;-0.20;99.90;;;;;;5091986;28;20044;-66
2021/01/18 00:20:32;;;;;;;70.18;30.67;;;-0.10;99.90;;;;;;5092164;28;20048;-65
2021/01/18 00:22:58;;;;;;;68.57;29.25;;;-0.10;99.90;;;;;;5092354;28;20040;-66
2021/01/18 00:25:25;;;;;;;71.38;30.98;;;-0.10;99.90;;;;;;5059939;28;20059;-65
2021/01/18 00:27:52;;;;;;;64.43;28.85;;;-0.10;99.90;;;;;;5092241;28;20417;-66
2021/01/18 00:30:24;;;;;;;62.40;27.05;;;-0.10;99.90;;;;;;5091683;28;20704;-66
2021/01/18 00:32:51;;;;;;;71.78;30.25;;;-0.10;99.90;;;;;;5092064;28;20055;-67
2021/01/18 00:35:19;;;;;;;65.40;27.80;;;0.00;99.90;;;;;;5091792;28;20051;-66
2021/01/18 00:37:49;;;;;;;58.85;27.27;;;0.00;99.90;;;;;;5089903;28;20087;-66
2021/01/18 00:40:18;;;;;;;61.20;27.55;;;0.00;99.90;;;;;;5088812;28;20052;-65
2021/01/18 00:42:45;;;;;;;60.75;26.98;;;0.00;99.90;;;;;;5084966;28;20040;-67
2021/01/18 00:45:14;;;;;;;65.78;27.60;;;0.10;99.90;;;;;;5092057;28;20744;-65
2021/01/18 00:47:47;;;;;;;57.80;25.90;;;0.10;99.90;;;;;;5091634;28;20040;-66
2021/01/18 00:50:18;;;;;;;63.17;26.73;;;0.20;99.90;;;;;;5091711;28;20470;-66
2021/01/18 00:52:50;;;;;;;58.87;25.53;;;0.20;99.90;;;;;;5091199;28;20040;-64
2021/01/18 00:55:18;;;;;;;67.65;27.80;;;0.20;99.90;;;;;;5091653;28;20048;-67
2021/01/18 00:57:46;;;;;;;59.13;26.55;;;0.30;99.90;;;;;;5091242;28;20422;-65
2021/01/18 01:00:29;;;;;;;61.00;26.77;;;0.30;99.90;;;;;;5091837;28;20046;-64
2021/01/18 01:02:57;;;;;;;57.20;25.30;;;0.30;99.90;;;;;;5073103;28;20044;-65
2021/01/18 01:05:26;;;;;;;62.72;25.45;;;0.40;99.90;;;;;;5091241;28;20048;-65
2021/01/18 01:07:55;;;;;;;56.75;24.20;;;0.40;99.90;;;;;;5091426;28;20050;-64
2021/01/18 01:10:24;;;;;;;58.53;26.52;;;0.40;99.90;;;;;;5091086;28;20055;-65
2021/01/18 01:12:57;;;;;;;60.17;26.40;;;0.40;99.90;;;;;;5091064;28;20052;-64
2021/01/18 01:15:24;;;;;;;58.22;25.23;;;0.40;99.90;;;;;;5091258;28;20414;-65
2021/01/18 01:17:51;;;;;;;60.00;26.60;;;0.40;99.90;;;;;;5091642;28;20410;-66
2021/01/18 01:20:19;;;;;;;57.13;25.40;;;0.50;99.90;;;;;;5083862;28;20399;-66
2021/01/18 01:22:47;;;;;;;58.63;24.67;;;0.50;99.90;;;;;;5091338;28;20382;-65
2021/01/18 01:25:15;;;;;;;58.53;25.40;;;0.70;99.90;;;;;;5090437;28;20055;-65
2021/01/18 01:27:43;;;;;;;54.22;24.55;;;0.70;99.90;;;;;;5091363;28;20036;-67
2021/01/18 01:30:19;;;;;;;58.00;24.25;;;0.80;99.90;;;;;;5089558;28;20040;-64
2021/01/18 01:32:48;;;;;;;56.55;23.88;;;0.90;99.90;;;;;;5091106;28;20058;-65
2021/01/18 01:35:16;;;;;;;57.10;23.55;;;1.00;99.90;;;;;;5090384;28;20036;-65
2021/01/18 01:37:43;;;;;;;53.47;24.15;;;1.00;99.90;;;;;;5089824;28;20497;-65
2021/01/18 01:40:12;;;;;;;48.13;22.70;;;1.00;99.90;;;;;;5087662;28;20037;-65
2021/01/18 01:42:38;;;;;;;50.67;22.52;;;1.10;99.90;;;;;;5083444;28;20050;-65
2021/01/18 01:45:07;;;;;;;47.17;20.75;;;1.20;99.90;;;;;;5091362;28;20576;-64
2021/01/18 01:47:42;;;;;;;48.70;20.17;;;1.10;99.90;;;;;;5090914;28;20074;-65
2021/01/18 01:50:34;;;;;;;48.42;21.73;;;1.10;99.90;;;;;;5090881;28;20056;-65
2021/01/18 01:53:13;;;;;;;;;;;1.20;99.90;;;;;;5086071;28;20089;-67
2021/01/18 01:55:40;;;;;;;46.90;19.73;;;1.20;99.90;;;;;;5091108;28;19920;-66
2021/01/18 01:58:07;;;;;;;47.75;20.17;;;1.30;99.90;;;;;;5089513;28;20062;-65
2021/01/18 02:00:37;;;;;;;45.45;20.40;;;1.30;99.90;;;;;;5090837;28;20048;-66
2021/01/18 02:03:23;;;;;;;42.22;20.23;;;1.30;99.90;;;;;;5090831;28;20375;-64
2021/01/18 02:05:53;;;;;;;42.63;19.88;;;1.40;99.90;;;;;;5090888;28;20044;-66
2021/01/18 02:08:20;;;;;;;44.53;19.95;;;1.40;99.90;;;;;;5090486;28;20056;-65
2021/01/18 02:10:46;;;;;;;42.88;20.63;;;1.40;99.90;;;;;;5090587;28;20494;-65
2021/01/18 02:13:28;;;;;;;45.08;20.13;;;1.40;99.90;;;;;;5089990;28;20050;-66
2021/01/18 02:16:06;;;;;;;42.90;19.92;;;1.50;99.90;;;;;;5090645;28;20044;-67
2021/01/18 02:18:47;;;;;;;43.60;19.30;;;1.50;99.90;;;;;;5090267;28;20127;-65
2021/01/18 02:21:37;;;;;;;41.05;18.70;;;1.50;99.90;;;;;;5090583;28;20491;-66
2021/01/18 02:24:38;;;;;;;46.17;19.92;;;1.50;99.90;;;;;;5087476;28;20044;-65
2021/01/18 02:27:28;;;;;;;38.60;18.23;;;1.60;99.90;;;;;;5090213;28;20048;-65
2021/01/18 02:30:19;;;;;;;39.83;18.70;;;1.60;99.90;;;;;;5085305;28;20059;-66
2021/01/18 02:33:10;;;;;;;34.83;18.25;;;1.60;99.90;;;;;;5090693;28;20079;-65
2021/01/18 02:36:10;;;;;;;42.95;17.98;;;1.60;99.90;;;;;;5083432;28;20056;-66
2021/01/18 02:38:54;;;;;;;35.72;17.25;;;1.60;99.90;;;;;;5089249;28;20052;-66
2021/01/18 02:41:43;;;;;;;36.30;18.88;;;1.60;99.90;;;;;;5090035;28;20422;-66
2021/01/18 02:44:22;;;;;;;35.75;16.98;;;1.60;99.90;;;;;;5089700;28;20048;-67
2021/01/18 02:46:50;;;;;;;38.45;18.05;;;1.50;99.90;;;;;;5090609;28;20050;-66
2021/01/18 02:49:20;;;;;;;34.15;17.20;;;1.50;99.90;;;;;;5093637;28;20087;-65
2021/01/18 02:51:52;;;;;;;35.38;17.83;;;1.50;99.90;;;;;;5093203;28;20522;-66
2021/01/18 02:54:18;;;;;;;35.83;17.08;;;1.50;99.90;;;;;;5092960;28;20061;-66
2021/01/18 02:56:51;;;;;;;35.78;16.73;;;1.40;99.90;;;;;;5093480;28;20517;-66
2021/01/18 02:59:19;;;;;;;38.50;17.48;;;1.40;99.90;;;;;;5094022;28;20091;-65
2021/01/18 03:02:21;;;;;;;35.20;17.58;;;1.40;99.90;;;;;;5094023;28;20091;-66
2021/01/18 03:05:02;;;;;;;34.40;17.53;;;1.40;99.90;;;;;;5086867;28;20052;-68
2021/01/18 03:07:45;;;;;;;34.20;17.77;;;1.40;99.90;;;;;;5092046;28;20493;-67
2021/01/18 03:10:32;;;;;;;35.47;16.83;;;1.40;99.90;;;;;;5074899;28;20049;-66
2021/01/18 03:13:10;;;;;;;38.00;17.70;;;1.30;99.90;;;;;;5088817;28;20056;-65
2021/01/18 03:15:46;;;;;;;35.08;16.60;;;1.20;99.90;;;;;;5093506;28;20044;-65
2021/01/18 03:18:18;;;;;;;35.13;17.20;;;1.20;99.90;;;;;;5090667;28;20475;-65
2021/01/18 03:20:45;;;;;;;34.35;16.88;;;1.20;99.90;;;;;;5092289;28;20565;-66
2021/01/18 03:23:12;;;;;;;36.35;18.20;;;1.10;99.90;;;;;;5092078;28;20040;-65
2021/01/18 03:25:55;;;;;;;37.65;16.52;;;1.10;99.90;;;;;;5092607;28;20048;-66
2021/01/18 03:28:24;;;;;;;32.53;16.63;;;1.20;99.90;;;;;;5093288;28;20052;-66
2021/01/18 03:30:51;;;;;;;29.38;15.95;;;1.20;99.90;;;;;;5092073;28;20452;-67
2021/01/18 03:33:24;;;;;;;34.03;16.65;;;1.20;99.90;;;;;;5092646;28;20094;-66
2021/01/18 03:35:52;;;;;;;35.22;16.83;;;1.20;99.90;;;;;;5089910;28;20478;-67
2021/01/18 03:38:19;;;;;;;32.75;18.20;;;1.20;99.90;;;;;;5092418;28;20341;-66
2021/01/18 03:40:46;;;;;;;31.23;16.95;;;1.10;99.90;;;;;;5091689;28;20044;-66
2021/01/18 03:43:13;;;;;;;29.38;16.00;;;1.20;99.90;;;;;;5092909;28;20063;-66
2021/01/18 03:45:42;;;;;;;35.25;15.85;;;1.20;99.90;;;;;;5092242;28;20472;-67
2021/01/18 03:48:11;;;;;;;31.70;16.35;;;1.20;99.90;;;;;;5092451;28;20489;-66
2021/01/18 03:50:38;;;;;;;33.70;16.40;;;1.20;99.90;;;;;;5092879;28;20135;-66
2021/01/18 03:53:05;;;;;;;33.22;16.20;;;1.20;99.90;;;;;;5092210;28;20414;-66
2021/01/18 03:55:31;;;;;;;32.17;16.77;;;1.20;99.90;;;;;;5092106;28;20063;-67
2021/01/18 03:57:58;;;;;;;30.83;16.38;;;1.20;99.90;;;;;;5090491;28;20478;-67
2021/01/18 04:00:26;;;;;;;31.85;16.60;;;1.30;99.90;;;;;;5091592;28;20047;-66
2021/01/18 04:02:54;;;;;;;29.75;16.38;;;1.20;99.90;;;;;;5091860;28;20077;-65
2021/01/18 04:05:22;;;;;;;30.70;16.55;;;1.20;99.90;;;;;;5092571;28;20044;-66
2021/01/18 04:07:49;;;;;;;30.63;14.70;;;1.30;99.90;;;;;;5091233;28;20044;-67
2021/01/18 04:10:25;;;;;;;29.05;15.75;;;1.30;99.90;;;;;;5090586;28;20075;-66
2021/01/18 04:12:52;;;;;;;28.13;15.40;;;1.30;99.90;;;;;;5091151;28;20043;-66
2021/01/18 04:15:21;;;;;;;27.75;15.60;;;1.30;99.90;;;;;;5090401;28;20493;-66
2021/01/18 04:17:49;;;;;;;30.63;15.88;;;1.30;99.90;;;;;;5073727;28;20048;-66
2021/01/18 04:20:17;;;;;;;29.33;15.50;;;1.30;99.90;;;;;;5089818;28;20080;-68
2021/01/18 04:22:52;;;;;;;31.48;14.55;;;1.30;99.90;;;;;;5092077;28;20051;-68
2021/01/18 04:25:20;;;;;;;30.48;14.85;;;1.30;99.90;;;;;;5091404;28;20418;-66
2021/01/18 04:27:52;;;;;;;29.13;15.50;;;1.20;99.90;;;;;;5092549;28;20142;-65
2021/01/18 04:30:21;;;;;;;33.58;16.33;;;1.20;99.90;;;;;;5091513;28;20056;-66
2021/01/18 04:32:58;;;;;;;30.35;16.98;;;1.20;99.90;;;;;;5092441;28;20060;-65
2021/01/18 04:35:26;;;;;;;29.33;15.07;;;1.20;99.90;;;;;;5091957;28;20136;-66
2021/01/18 04:37:54;;;;;;;32.58;16.20;;;1.30;99.90;;;;;;5089807;28;20036;-66
2021/01/18 04:40:23;;;;;;;32.22;17.38;;;1.30;99.90;;;;;;5084396;28;20043;-66
2021/01/18 04:42:50;;;;;;;33.47;18.38;;;1.30;99.90;;;;;;5105389;28;20040;-66
2021/01/18 04:45:19;;;;;;;32.65;17.42;;;1.30;99.90;;;;;;5090788;28;20055;-66
2021/01/18 04:47:48;;;;;;;33.70;18.42;;;1.30;99.90;;;;;;5091387;28;20055;-66
2021/01/18 04:50:16;;;;;;;38.40;18.55;;;1.30;99.90;;;;;;5091684;28;20541;-66
2021/01/18 04:52:53;;;;;;;39.45;19.58;;;1.30;99.90;;;;;;5091583;28;20455;-63
2021/01/18 04:55:38;;;;;;;36.47;19.33;;;1.40;99.90;;;;;;5091777;28;20143;-65
2021/01/18 04:58:19;;;;;;;36.88;19.67;;;1.40;99.90;;;;;;5092383;28;20379;-65
2021/01/18 05:00:56;;;;;;;46.50;19.85;;;1.50;99.90;;;;;;5086937;28;20048;-66
2021/01/18 05:03:25;;;;;;;39.50;19.73;;;1.50;99.90;;;;;;5071568;28;20056;-65
2021/01/18 05:05:52;;;;;;;36.03;18.95;;;1.50;99.90;;;;;;5072723;28;20158;-65
2021/01/18 05:08:37;;;;;;;39.25;19.88;;;1.50;99.90;;;;;;5089891;28;20048;-64
2021/01/18 05:11:04;;;;;;;36.53;18.23;;;1.50;99.90;;;;;;5083009;28;20045;-67
2021/01/18 05:13:31;;;;;;;37.63;18.67;;;1.60;99.90;;;;;;5080470;28;20063;-65
2021/01/18 05:16:01;;;;;;;40.22;20.00;;;1.70;99.90;;;;;;5090212;28;20153;-65
2021/01/18 05:18:33;;;;;;;39.13;19.90;;;1.70;99.90;;;;;;5090632;28;20083;-65
2021/01/18 05:21:05;;;;;;;41.40;20.13;;;1.60;99.90;;;;;;5091366;28;20076;-65
2021/01/18 05:23:37;;;;;;;37.50;18.77;;;1.60;99.90;;;;;;5089386;28;20135;-65
2021/01/18 05:26:20;;;;;;;39.47;20.38;;;1.60;99.90;;;;;;5072999;28;20055;-67
2021/01/18 05:28:47;;;;;;;41.08;19.77;;;1.60;99.90;;;;;;5091320;28;20048;-64
2021/01/18 05:31:35;;;;;;;39.53;20.65;;;1.60;99.90;;;;;;5090859;28;20047;-65
2021/01/18 05:34:11;;;;;;;43.35;20.70;;;1.60;99.90;;;;;;5073079;28;20048;-68
2021/01/18 05:36:47;;;;;;;43.20;19.88;;;1.60;99.90;;;;;;5090069;28;20435;-68
2021/01/18 05:39:15;;;;;;;45.00;21.13;;;1.60;99.90;;;;;;5090187;28;20062;-68
2021/01/18 05:41:43;;;;;;;42.92;20.85;;;1.60;99.90;;;;;;5087917;28;20067;-68
2021/01/18 05:44:10;;;;;;;42.03;20.92;;;1.60;99.90;;;;;;5089682;28;20048;-68
2021/01/18 05:46:39;;;;;;;41.20;21.17;;;1.70;99.90;;;;;;5090002;28;20044;-68
2021/01/18 05:49:10;;;;;;;41.53;21.17;;;1.60;99.90;;;;;;5072764;28;20048;-68
2021/01/18 05:51:38;;;;;;;38.28;20.60;;;1.60;99.90;;;;;;5084413;28;20133;-68
2021/01/18 05:54:06;;;;;;;43.65;21.02;;;1.60;99.90;;;;;;5090615;28;20044;-68
2021/01/18 05:56:44;;;;;;;41.40;19.48;;;1.60;99.90;;;;;;5090619;28;20078;-68
2021/01/18 05:59:14;;;;;;;38.42;19.20;;;1.60;99.90;;;;;;5090954;28;20124;-68
2021/01/18 06:01:40;;;;;;;42.55;20.20;;;1.60;99.90;;;;;;5082008;28;20500;-69
2021/01/18 06:04:14;;;;;;;40.00;20.27;;;1.60;99.90;;;;;;5090494;28;20043;-69
2021/01/18 06:06:43;;;;;;;38.30;19.83;;;1.70;99.90;;;;;;5070311;28;20055;-69
2021/01/18 06:09:10;;;;;;;37.00;20.15;;;1.70;99.90;;;;;;5090666;28;20051;-68
2021/01/18 06:11:36;;;;;;;38.22;20.00;;;1.70;99.90;;;;;;5090455;28;20043;-69
2021/01/18 06:14:05;;;;;;;38.97;20.45;;;1.60;99.90;;;;;;5090956;28;20418;-68
2021/01/18 06:16:32;;;;;;;44.17;20.70;;;1.70;99.90;;;;;;5090176;28;20051;-68
2021/01/18 06:19:08;;;;;;;38.95;19.98;;;1.60;99.90;;;;;;5090831;28;20055;-68
2021/01/18 06:21:36;;;;;;;37.85;19.52;;;1.60;99.90;;;;;;5082544;28;20135;-68
2021/01/18 06:24:28;;;;;;;39.53;19.50;;;1.60;99.90;;;;;;5076470;28;20036;-68
2021/01/18 06:26:54;;;;;;;39.67;20.10;;;1.70;99.90;;;;;;5089894;28;20709;-67
2021/01/18 06:29:39;;;;;;;47.92;21.67;;;1.70;99.90;;;;;;5090228;28;20055;-67
2021/01/18 06:32:07;;;;;;;43.30;21.30;;;1.70;99.90;;;;;;5093797;28;20040;-67
2021/01/18 06:34:35;;;;;;;42.35;19.70;;;1.70;99.90;;;;;;5075418;28;20051;-67
2021/01/18 06:37:02;;;;;;;39.65;20.08;;;1.70;99.90;;;;;;5074537;28;20044;-68
2021/01/18 06:39:30;;;;;;;44.28;20.48;;;1.70;99.90;;;;;;5084309;28;20048;-68
2021/01/18 06:41:59;;;;;;;37.90;20.25;;;1.70;99.90;;;;;;5076520;28;20045;-67
2021/01/18 06:44:39;;;;;;;41.55;19.38;;;1.70;99.90;;;;;;5082497;28;20040;-68
2021/01/18 06:47:28;;;;;;;39.53;19.65;;;1.60;99.90;;;;;;5081442;28;20044;-67
2021/01/18 06:50:04;;;;;;;39.63;19.50;;;1.50;99.90;;;;;;5083108;28;20060;-69
2021/01/18 06:52:32;;;;;;;46.08;20.02;;;1.50;99.90;;;;;;5082025;28;20393;-67
2021/01/18 06:55:05;;;;;;;36.88;19.73;;;1.50;99.90;;;;;;5092486;28;20046;-68
2021/01/18 06:57:46;;;;;;;40.72;20.63;;;1.50;99.90;;;;;;5083192;28;20052;-68
2021/01/18 07:00:15;;;;;;;39.38;20.23;;;1.50;99.90;;;;;;5076053;28;20044;-69
2021/01/18 07:02:59;;;;;;;45.53;19.85;;;1.50;99.90;;;;;;5069785;28;20036;-68
2021/01/18 07:05:46;;;;;;;40.10;19.95;;;1.60;99.90;;;;;;5075514;28;20040;-68
2021/01/18 07:08:19;;;;;;;38.38;19.35;;;1.50;99.90;;;;;;5073774;28;20040;-67
2021/01/18 07:10:48;;;;;;;38.55;18.95;;;1.50;99.90;;;;;;5093447;28;20048;-68
2021/01/18 07:13:20;;;;;;;33.47;18.25;;;1.50;99.90;;;;;;5092868;28;20044;-68
2021/01/18 07:15:48;;;;;;;37.38;19.02;;;1.50;99.90;;;;;;5094364;28;20052;-66
2021/01/18 07:18:15;;;;;;;34.05;16.88;;;1.50;99.90;;;;;;5074716;28;20044;-67
2021/01/18 07:20:43;;;;;;;39.15;18.48;;;1.50;99.90;;;;;;5093070;28;20093;-66
2021/01/18 07:23:15;;;;;;;34.67;17.33;;;1.60;99.90;;;;;;5092624;28;20546;-65
2021/01/18 07:25:46;;;;;;;37.17;18.27;;;1.50;99.90;;;;;;5092959;28;20090;-66
2021/01/18 07:28:17;;;;;;;34.55;17.48;;;1.60;99.90;;;;;;5090558;28;20059;-66
2021/01/18 07:30:43;;;;;;;37.95;18.75;;;1.60;99.90;;;;;;5092874;28;20050;-65
2021/01/18 07:33:16;;;;;;;34.80;17.52;;;1.60;99.90;;;;;;5076142;28;20048;-66
2021/01/18 07:35:45;;;;;;;37.75;17.27;;;1.60;99.90;;;;;;5083937;28;20051;-66
2021/01/18 07:38:19;;;;;;;34.70;17.30;;;1.60;99.90;;;;;;5074280;28;20041;-66
2021/01/18 07:41:08;;;;;;;33.55;18.10;;;1.60;99.90;;;;;;5101579;28;20052;-66
2021/01/18 07:43:45;;;;;;;30.75;16.33;;;1.70;99.90;;;;;;5066527;28;20456;-68
2021/01/18 07:46:29;;;;;;;33.92;17.45;;;1.80;99.90;;;;;;5090090;28;20106;-64
2021/01/18 07:49:08;;;;;;;31.92;15.50;;;1.80;99.90;;;;;;5093222;28;20083;-65
2021/01/18 07:51:35;;;;;;;31.38;16.92;;;1.80;99.90;;;;;;5090715;28;20131;-65
2021/01/18 07:54:01;;;;;;;31.80;17.55;;;1.90;99.90;;;;;;5092643;28;20044;-66
2021/01/18 07:56:32;;;;;;;29.35;15.18;;;1.80;99.90;;;;;;5087804;28;20546;-65
2021/01/18 07:59:03;;;;;;;29.80;15.85;;;1.90;99.90;;;;;;5085369;28;20064;-65
2021/01/18 08:01:31;;;;;;;25.25;14.52;;;1.90;99.90;;;;;;5091437;28;20131;-67
2021/01/18 08:04:16;;;;;;;28.75;15.48;;;1.90;99.90;;;;;;5093136;28;20047;-67
2021/01/18 08:07:08;;;;;;;30.88;16.20;;;1.90;99.90;;;;;;5092023;28;20118;-67
2021/01/18 08:09:36;;;;;;;28.77;14.97;;;1.90;99.90;;;;;;5092796;28;20512;-65
2021/01/18 08:12:27;;;;;;;29.17;15.57;;;1.90;99.90;;;;;;5090536;28;20467;-66
2021/01/18 08:14:55;;;;;;;36.72;16.42;;;1.90;99.90;;;;;;5091442;28;20044;-68
2021/01/18 08:17:22;;;;;;;26.52;15.60;;;1.90;99.90;;;;;;5091231;28;20522;-66
2021/01/18 08:20:07;;;;;;;28.65;14.82;;;1.90;99.90;;;;;;5092027;28;20040;-67
2021/01/18 08:22:34;;;;;;;25.83;14.00;;;1.90;99.90;;;;;;5090903;28;20040;-66
2021/01/18 08:25:01;;;;;;;29.83;14.55;;;1.90;99.90;;;;;;5073831;28;20058;-67
2021/01/18 08:27:41;;;;;;;25.42;14.35;;;2.00;99.90;;;;;;5088628;28;20067;-66
2021/01/18 08:30:34;;;;;;;21.83;12.98;;;2.00;99.90;;;;;;5090504;28;20051;-65
2021/01/18 08:33:04;;;;;;;;;;;2.00;99.90;;;;;;5072885;28;20052;-65
2021/01/18 08:35:35;;;;;;;22.35;11.82;;;2.00;99.90;;;;;;5077779;28;20377;-66
2021/01/18 08:38:06;;;;;;;24.55;13.18;;;2.00;99.90;;;;;;5081431;28;20487;-65
2021/01/18 08:40:51;;;;;;;22.73;12.93;;;2.10;99.90;;;;;;5073418;28;20036;-65
2021/01/18 08:43:19;;;;;;;25.70;13.82;;;2.10;99.90;;;;;;5086617;28;20046;-66
2021/01/18 08:45:51;;;;;;;28.98;13.15;;;2.00;99.90;;;;;;5102317;28;20044;-65
2021/01/18 08:48:25;;;;;;;22.77;12.88;;;2.00;99.90;;;;;;5090802;28;20426;-67
2021/01/18 08:50:54;;;;;;;22.60;12.48;;;2.00;99.90;;;;;;5086301;28;20047;-67
2021/01/18 08:53:32;;;;;;;24.10;13.50;;;2.00;99.90;;;;;;5091754;28;20054;-65
2021/01/18 08:56:28;;;;;;;27.10;13.18;;;2.10;99.90;;;;;;5087148;28;20539;-64
2021/01/18 08:58:54;;;;;;;26.77;14.38;;;2.10;99.90;;;;;;5091621;28;20040;-64
2021/01/18 09:01:30;;;;;;;35.33;16.08;;;2.10;99.90;;;;;;5084962;28;20133;-66
2021/01/18 09:04:04;;;;;;;27.83;15.38;;;2.00;99.90;;;;;;5076707;28;20044;-64
2021/01/18 09:06:30;;;;;;;24.77;14.25;;;2.10;99.90;;;;;;5090198;28;20056;-65
2021/01/18 09:09:07;;;;;;;23.70;13.27;;;2.00;99.90;;;;;;5091824;28;20078;-65
2021/01/18 09:11:34;;;;;;;26.52;14.73;;;2.00;99.90;;;;;;5089760;28;20542;-66
2021/01/18 09:14:02;;;;;;;28.13;16.17;;;2.00;99.90;;;;;;5068148;28;20048;-65
2021/01/18 09:16:28;;;;;;;30.08;15.50;;;2.00;99.90;;;;;;5089909;28;20044;-66
2021/01/18 09:19:06;;;;;;;24.67;13.90;;;2.00;99.90;;;;;;5071990;28;20403;-67
2021/01/18 09:21:33;;;;;;;23.50;13.57;;;2.10;99.90;;;;;;5090836;28;20059;-66
2021/01/18 09:24:09;;;;;;;25.60;13.80;;;2.20;99.90;;;;;;5089955;28;20066;-65
2021/01/18 09:26:36;;;;;;;25.70;14.30;;;2.20;99.90;;;;;;5090779;28;20052;-65
2021/01/18 09:29:03;;;;;;;22.13;12.60;;;2.20;99.90;;;;;;5089627;28;20141;-66
2021/01/18 09:31:30;;;;;;;25.85;14.00;;;2.30;99.90;;;;;;5090679;28;20447;-67
2021/01/18 09:34:09;;;;;;;24.20;13.68;;;2.30;99.90;;;;;;5090768;28;20466;-66
2021/01/18 09:36:39;;;;;;;24.60;13.57;;;2.40;99.90;;;;;;5104932;28;20060;-65
2021/01/18 09:39:06;;;;;;;22.67;13.18;;;2.50;99.90;;;;;;5090177;28;20036;-66
2021/01/18 09:41:54;;;;;;;18.20;10.75;;;2.50;99.90;;;;;;5085652;28;20044;-67
2021/01/18 09:44:21;;;;;;;19.38;10.70;;;2.60;99.90;;;;;;5089874;28;20490;-65
2021/01/18 09:46:49;;;;;;;15.57;10.10;;;2.60;99.90;;;;;;5089278;28;20090;-65
2021/01/18 09:49:28;;;;;;;16.98;9.23;;;2.60;99.90;;;;;;5072639;28;20116;-66
2021/01/18 09:51:57;;;;;;;16.50;10.05;;;2.60;99.90;;;;;;5072331;28;20135;-67
2021/01/18 09:54:24;;;;;;;16.35;10.18;;;2.60;99.90;;;;;;5091100;28;20780;-65
2021/01/18 09:56:54;;;;;;;16.02;10.30;;;2.60;99.90;;;;;;5090907;28;20052;-66
2021/01/18 09:59:24;;;;;;;19.10;10.50;;;2.70;99.90;;;;;;5094859;28;20460;-65
2021/01/18 10:01:52;;;;;;;16.67;10.27;;;2.70;99.90;;;;;;5071999;28;20052;-67
2021/01/18 10:04:24;;;;;;;16.00;9.20;;;2.80;99.90;;;;;;5093968;28;20059;-66
2021/01/18 10:07:02;;;;;;;17.20;9.98;;;2.80;99.90;;;;;;5081110;28;20056;-67
2021/01/18 10:09:34;;;;;;;17.38;9.65;;;2.80;99.90;;;;;;5094570;28;20055;-66
2021/01/18 10:12:04;;;;;;;16.35;10.25;;;2.90;99.90;;;;;;5093374;28;20051;-68
2021/01/18 10:14:31;;;;;;;19.42;10.45;;;3.00;99.90;;;;;;5095958;28;20097;-64
2021/01/18 10:16:57;;;;;;;20.35;10.57;;;3.10;99.90;;;;;;5075888;28;20047;-66
2021/01/18 10:19:24;;;;;;;18.30;9.80;;;3.10;99.90;;;;;;5096375;28;20052;-68
2021/01/18 10:21:51;;;;;;;16.80;10.20;;;3.10;99.90;;;;;;5078598;28;20050;-67
2021/01/18 10:24:32;;;;;;;25.38;10.15;;;3.00;99.90;;;;;;5093743;28;20058;-65
2021/01/18 10:27:07;;;;;;;15.25;9.55;;;3.00;99.90;;;;;;5093018;28;20489;-65
2021/01/18 10:29:33;;;;;;;20.27;10.57;;;3.00;99.90;;;;;;5094670;28;20055;-65
2021/01/18 10:32:00;;;;;;;19.42;10.60;;;3.10;99.90;;;;;;5093236;28;20105;-67
2021/01/18 10:34:29;;;;;;;14.65;9.95;;;3.10;99.90;;;;;;5094438;28;20125;-66
2021/01/18 10:37:07;;;;;;;17.80;10.38;;;3.10;99.90;;;;;;5089791;28;20131;-67
2021/01/18 10:39:38;;;;;;;16.02;10.10;;;3.20;99.90;;;;;;5076647;28;20059;-66
2021/01/18 10:42:11;;;;;;;16.23;9.70;;;3.10;99.90;;;;;;5086959;28;20055;-67
2021/01/18 10:44:57;;;;;;;19.27;10.13;;;3.00;99.90;;;;;;5091592;28;20527;-66
2021/01/18 10:47:26;;;;;;;20.17;10.05;;;3.20;99.90;;;;;;5087021;28;20052;-67
2021/01/18 10:49:59;;;;;;;18.35;10.57;;;3.10;99.90;;;;;;5093174;28;20521;-66
2021/01/18 10:52:40;;;;;;;16.73;10.07;;;3.20;99.90;;;;;;5092058;28;20448;-69
2021/01/18 10:55:07;;;;;;;15.57;9.70;;;3.20;99.90;;;;;;5080952;28;20139;-67
2021/01/18 10:57:47;;;;;;;17.17;10.23;;;3.20;99.90;;;;;;5093178;28;20101;-67
2021/01/18 11:00:16;;;;;;;16.90;10.02;;;3.40;99.90;;;;;;5093177;28;20449;-66
2021/01/18 11:03:03;;;;;;;18.25;10.68;;;3.30;99.90;;;;;;5091405;28;20054;-66
2021/01/18 11:05:34;;;;;;;15.85;9.98;;;3.30;99.90;;;;;;5092159;28;20052;-67
2021/01/18 11:08:04;;;;;;;18.60;10.43;;;3.20;99.90;;;;;;5086961;28;20215;-68
2021/01/18 11:10:31;;;;;;;21.15;11.25;;;3.10;99.90;;;;;;5093096;28;20395;-70
2021/01/18 11:13:06;;;;;;;18.70;10.70;;;3.10;99.90;;;;;;5087254;28;20058;-65
2021/01/18 11:15:35;;;;;;;27.90;15.77;;;3.20;99.90;;;;;;5082353;28;20468;-67
2021/01/18 11:18:03;;;;;;;33.17;17.98;;;3.30;99.90;;;;;;5091949;28;20040;-67
2021/01/18 11:20:31;;;;;;;23.65;14.10;;;3.20;99.90;;;;;;5092559;28;20058;-67
2021/01/18 11:22:58;;;;;;;22.90;13.38;;;3.30;99.90;;;;;;5091662;28;20486;-67
2021/01/18 11:25:25;;;;;;;25.08;14.07;;;3.20;99.90;;;;;;5092612;28;20048;-66
2021/01/18 11:27:51;;;;;;;21.10;12.63;;;3.20;99.90;;;;;;5074000;28;20409;-66
2021/01/18 11:30:18;;;;;;;24.30;12.57;;;3.10;99.90;;;;;;5092889;28;20052;-69
2021/01/18 11:32:45;;;;;;;20.38;11.40;;;3.10;99.90;;;;;;5091577;28;20048;-68
2021/01/18 11:35:13;;;;;;;21.40;11.68;;;3.00;99.90;;;;;;5092631;28;20454;-66
2021/01/18 11:37:40;;;;;;;21.27;11.70;;;3.00;99.90;;;;;;5074005;28;20480;-66
2021/01/18 11:40:10;;;;;;;24.27;12.32;;;3.00;99.90;;;;;;5084068;28;20483;-66
2021/01/18 11:42:38;;;;;;;25.88;13.25;;;3.00;99.90;;;;;;5091323;28;20044;-67
2021/01/18 11:45:07;;;;;;;24.25;12.85;;;2.90;99.90;;;;;;5091248;28;20131;-66
2021/01/18 11:47:36;;;;;;;25.27;12.05;;;2.90;99.90;;;;;;5092395;28;20131;-65
2021/01/18 11:50:07;;;;;;;22.08;11.68;;;2.90;99.90;;;;;;5091745;28;20064;-66
2021/01/18 11:52:44;;;;;;;23.60;13.07;;;2.90;99.90;;;;;;5078740;28;20052;-66
2021/01/18 11:55:12;;;;;;;24.98;13.27;;;2.90;99.90;;;;;;5091281;28;20058;-67
2021/01/18 11:57:46;;;;;;;25.70;12.43;;;2.90;99.90;;;;;;5091076;28;20497;-67
2021/01/18 12:00:16;;;;;;;21.25;12.32;;;3.00;99.90;;;;;;5092281;28;20059;-66
2021/01/18 12:02:42;;;;;;;21.10;11.27;;;3.10;99.90;;;;;;5091537;28;20138;-68
2021/01/18 12:05:09;;;;;;;19.52;11.38;;;3.10;99.90;;;;;;5092500;28;20070;-67
2021/01/18 12:07:35;;;;;;;21.98;11.75;;;3.20;99.90;;;;;;5092112;28;20058;-69
2021/01/18 12:10:04;;;;;;;20.17;11.88;;;3.10;99.90;;;;;;5072565;28;20052;-69
2021/01/18 12:12:34;;;;;;;21.95;11.77;;;3.20;99.90;;;;;;5075864;28;20529;-67
2021/01/18 12:15:00;;;;;;;30.98;13.05;;;3.20;99.90;;;;;;5089856;28;20504;-67
2021/01/18 12:17:26;;;;;;;20.20;11.88;;;3.20;99.90;;;;;;5089561;28;20482;-68
2021/01/18 12:19:53;;;;;;;25.50;12.18;;;3.10;99.90;;;;;;5091192;28;20052;-67
2021/01/18 12:22:20;;;;;;;24.55;12.20;;;3.10;99.90;;;;;;5071039;28;20047;-67
2021/01/18 12:24:46;;;;;;;24.92;11.90;;;3.10;99.90;;;;;;5090690;28;20756;-67
2021/01/18 12:27:13;;;;;;;22.98;12.82;;;3.00;99.90;;;;;;5090349;28;20052;-67
2021/01/18 12:29:39;;;;;;;23.52;11.15;;;2.90;99.90;;;;;;5090754;28;20063;-68
2021/01/18 12:32:06;;;;;;;22.88;12.23;;;2.80;99.90;;;;;;5091560;28;20383;-68
2021/01/18 12:34:33;;;;;;;23.42;11.82;;;2.90;99.90;;;;;;5091468;28;20047;-66
2021/01/18 12:36:59;;;;;;;24.40;11.45;;;2.80;99.90;;;;;;5090164;28;20048;-69
2021/01/18 12:39:26;;;;;;;22.88;11.82;;;2.80;99.90;;;;;;5086830;28;20128;-68
2021/01/18 12:41:52;;;;;;;25.17;12.00;;;2.80;99.90;;;;;;5078963;28;20071;-66
2021/01/18 12:44:19;;;;;;;26.25;11.60;;;2.80;99.90;;;;;;5090066;28;20048;-66
2021/01/18 12:46:50;;;;;;;20.13;11.60;;;2.80;99.90;;;;;;5089422;28;20095;-67
2021/01/18 12:49:17;;;;;;;19.90;11.43;;;2.80;99.90;;;;;;5091647;28;20143;-67
2021/01/18 12:51:43;;;;;;;23.58;12.35;;;2.70;99.90;;;;;;5090450;28;20054;-67
2021/01/18 12:54:10;;;;;;;21.67;11.85;;;2.80;99.90;;;;;;5090588;28;20070;-66
2021/01/18 12:56:37;;;;;;;21.75;10.90;;;2.80;99.90;;;;;;5071229;28;20048;-67
2021/01/18 12:59:03;;;;;;;23.38;11.38;;;2.80;99.90;;;;;;5091241;28;20131;-67
2021/01/18 13:01:33;;;;;;;18.23;11.07;;;2.80;99.90;;;;;;5090529;28;20130;-66